Burlington, VT (05401)

4:09 PM EDT on August 03, 2015 (GMT -0400)
APRSWXNET | | Change Station
CLOSE
Current Station
Personal Weather Station
Location: Winooski, VT
Elevation: 310 ft
Nearby Weather Stations
Active Advisory: Severe Thunderstorm Watch

Elev 310 ft 44.50 °N, 73.20 °W | Updated 31 minutes ago

Partly Cloudy
Partly Cloudy
82 °F
Feels Like 84 °F
N
0
Wind Variable Wind from WSW
Gusts 3.0 mph

Today
High -- | Low -- °F
--% Chance of Precip.
Yesterday
High -- | Low -- °F
Precip. -- in
5:41 AM 8:15 PM
Waning Gibbous, 84% visible
Pressure 29.69 in
Visibility 10.0 miles
Clouds Scattered Clouds 7500 ft
Mostly Cloudy 11000 ft
Heat Index 84 °F
Dew Point 66 °F
Humidity 59%
Rainfall in
Snow Depth Not available.
UV 3 out of 12
Pollen 3.90 out of 12
Air Quality Not available.
Flu Activity Not available.
METAR KBTV 031954Z 18009KT 10SM SCT075 BKN110 28/18 A2969 RMK AO2 SLP052 T02780183

More Conditions Fewer Conditions

Pressure 29.69 in
Visibility 10.0 miles
Clouds Scattered Clouds 7500 ft
Mostly Cloudy 11000 ft
Heat Index 84 °F
Dew Point 66 °F
Humidity 59%
Rainfall in
Snow Depth Not available.
UV 3 out of 12
Pollen 3.90 out of 12
Air Quality Not available.
Flu Activity Not available.
METAR KBTV 031954Z 18009KT 10SM SCT075 BKN110 28/18 A2969 RMK AO2 SLP052 T02780183

More Conditions Fewer Conditions

10-Day Weather Forecast

×

Almanac

Astronomy

Aug. 03, 2015 Rise Set
Actual Time
Civil Twilight
Nautical Twilight
Astronomical Twilight
Moon
Length of Visible Light
Length of Day
Tomorrow will be .
, % of the Moon is Illuminated

Today's Extremes

State Highs State Lows

Community

WunderPhotos

Upload Photos

1,843,720 photos uploaded!

WunderBlogs® & News

Nearby

Air Quality

  Air Quality AQ Index Pollutant
Not available.

Snow Depth

Station Depth Elevation

Earthquake Activity

City Distance Mag. Time & Date
Minimum magnitude displayed is 2.5.

Coastal Water Temperatures

Place Temperature

Stations

Nearby Weather Stations

Station Location Temp. Windchill Dew Point Humidity Wind Precip. Elev Updated Type
                   
Severe Thunderstorm Watch
Statement as of 4:02 PM EDT on August 03, 2015

Severe Thunderstorm Watch 466 remains in effect until 900 PM EDT

VT
. Vermont counties included are

Addison Caledonia Chittenden
Essex Franklin Grand Isle
LaMoille Orange Orleans
Rutland Washington Windsor